sensor_id;sensor_type;location;lat;lon;timestamp;temperature;humidity
24462;DHT22;12631;50.860;5.714;2022-12-07T00:02:08;5.50;99.90
24462;DHT22;12631;50.860;5.714;2022-12-07T00:04:35;5.50;99.90
24462;DHT22;12631;50.860;5.714;2022-12-07T00:07:02;5.50;99.90
24462;DHT22;12631;50.860;5.714;2022-12-07T00:09:29;5.50;99.90
24462;DHT22;12631;50.860;5.714;2022-12-07T00:11:58;5.60;99.90
24462;DHT22;12631;50.860;5.714;2022-12-07T00:14:25;5.60;99.90
24462;DHT22;12631;50.860;5.714;2022-12-07T00:16:52;5.60;99.90
24462;DHT22;12631;50.860;5.714;2022-12-07T00:19:20;5.50;99.90
24462;DHT22;12631;50.860;5.714;2022-12-07T00:21:47;5.50;99.90
24462;DHT22;12631;50.860;5.714;2022-12-07T00:24:14;5.50;99.90
24462;DHT22;12631;50.860;5.714;2022-12-07T00:26:42;5.50;99.90
24462;DHT22;12631;50.860;5.714;2022-12-07T00:29:14;5.50;99.90
24462;DHT22;12631;50.860;5.714;2022-12-07T00:31:42;5.50;99.90
24462;DHT22;12631;50.860;5.714;2022-12-07T00:34:12;5.50;99.90
24462;DHT22;12631;50.860;5.714;2022-12-07T00:36:39;5.50;99.90
24462;DHT22;12631;50.860;5.714;2022-12-07T00:39:06;5.50;99.90
24462;DHT22;12631;50.860;5.714;2022-12-07T00:41:34;5.40;99.90
24462;DHT22;12631;50.860;5.714;2022-12-07T00:44:01;5.40;99.90
24462;DHT22;12631;50.860;5.714;2022-12-07T00:46:30;5.30;99.90
24462;DHT22;12631;50.860;5.714;2022-12-07T00:48:58;5.40;99.90
24462;DHT22;12631;50.860;5.714;2022-12-07T00:51:25;5.30;99.90
24462;DHT22;12631;50.860;5.714;2022-12-07T00:53:53;5.40;99.90
24462;DHT22;12631;50.860;5.714;2022-12-07T00:56:22;5.30;99.90
24462;DHT22;12631;50.860;5.714;2022-12-07T00:58:51;5.40;99.90
24462;DHT22;12631;50.860;5.714;2022-12-07T01:01:18;5.40;99.90
24462;DHT22;12631;50.860;5.714;2022-12-07T01:03:47;5.40;99.90
24462;DHT22;12631;50.860;5.714;2022-12-07T01:06:15;5.50;99.90
24462;DHT22;12631;50.860;5.714;2022-12-07T01:08:43;5.40;99.90
24462;DHT22;12631;50.860;5.714;2022-12-07T01:11:13;5.40;99.90
24462;DHT22;12631;50.860;5.714;2022-12-07T01:13:41;5.40;99.90
24462;DHT22;12631;50.860;5.714;2022-12-07T01:16:10;5.40;99.90
24462;DHT22;12631;50.860;5.714;2022-12-07T01:18:38;5.40;99.90
24462;DHT22;12631;50.860;5.714;2022-12-07T01:21:10;5.40;99.90
24462;DHT22;12631;50.860;5.714;2022-12-07T01:23:38;5.40;99.90
24462;DHT22;12631;50.860;5.714;2022-12-07T01:26:09;5.40;99.90
24462;DHT22;12631;50.860;5.714;2022-12-07T01:28:36;5.50;99.90
24462;DHT22;12631;50.860;5.714;2022-12-07T01:31:05;5.50;99.90
24462;DHT22;12631;50.860;5.714;2022-12-07T01:33:35;5.50;99.90
24462;DHT22;12631;50.860;5.714;2022-12-07T01:36:03;5.50;99.90
24462;DHT22;12631;50.860;5.714;2022-12-07T01:38:33;5.60;99.90
24462;DHT22;12631;50.860;5.714;2022-12-07T01:41:01;5.60;99.90
24462;DHT22;12631;50.860;5.714;2022-12-07T01:43:31;5.60;99.90
24462;DHT22;12631;50.860;5.714;2022-12-07T01:45:59;5.50;99.90
24462;DHT22;12631;50.860;5.714;2022-12-07T01:48:29;5.50;99.90
24462;DHT22;12631;50.860;5.714;2022-12-07T01:51:00;5.50;99.90
24462;DHT22;12631;50.860;5.714;2022-12-07T01:53:31;5.50;99.90
24462;DHT22;12631;50.860;5.714;2022-12-07T01:56:01;5.50;99.90
24462;DHT22;12631;50.860;5.714;2022-12-07T01:58:28;5.50;99.90
24462;DHT22;12631;50.860;5.714;2022-12-07T02:00:56;5.50;99.90
24462;DHT22;12631;50.860;5.714;2022-12-07T02:03:27;5.50;99.90
24462;DHT22;12631;50.860;5.714;2022-12-07T02:05:57;5.50;99.90
24462;DHT22;12631;50.860;5.714;2022-12-07T02:08:25;5.40;99.90
24462;DHT22;12631;50.860;5.714;2022-12-07T02:10:54;5.50;99.90
24462;DHT22;12631;50.860;5.714;2022-12-07T02:13:23;5.50;99.90
24462;DHT22;12631;50.860;5.714;2022-12-07T02:16:03;5.50;99.90
24462;DHT22;12631;50.860;5.714;2022-12-07T02:18:53;5.50;99.90
24462;DHT22;12631;50.860;5.714;2022-12-07T02:21:29;5.50;99.90
24462;DHT22;12631;50.860;5.714;2022-12-07T02:24:24;5.50;99.90
24462;DHT22;12631;50.860;5.714;2022-12-07T02:29:57;5.40;99.90
24462;DHT22;12631;50.860;5.714;2022-12-07T02:32:28;5.40;99.90
24462;DHT22;12631;50.860;5.714;2022-12-07T02:35:06;5.40;99.90
24462;DHT22;12631;50.860;5.714;2022-12-07T02:37:37;5.40;99.90
24462;DHT22;12631;50.860;5.714;2022-12-07T02:40:09;5.40;99.90
24462;DHT22;12631;50.860;5.714;2022-12-07T02:42:43;5.40;99.90
24462;DHT22;12631;50.860;5.714;2022-12-07T02:45:15;5.40;99.90
24462;DHT22;12631;50.860;5.714;2022-12-07T02:47:46;5.40;99.90
24462;DHT22;12631;50.860;5.714;2022-12-07T02:50:18;5.40;99.90
24462;DHT22;12631;50.860;5.714;2022-12-07T02:52:45;5.40;99.90
24462;DHT22;12631;50.860;5.714;2022-12-07T02:55:15;5.40;99.90
24462;DHT22;12631;50.860;5.714;2022-12-07T02:57:57;5.40;99.90
24462;DHT22;12631;50.860;5.714;2022-12-07T03:00:40;5.40;99.90
24462;DHT22;12631;50.860;5.714;2022-12-07T03:03:12;5.40;99.90
24462;DHT22;12631;50.860;5.714;2022-12-07T03:08:46;5.40;99.90
24462;DHT22;12631;50.860;5.714;2022-12-07T03:11:17;5.40;99.90
24462;DHT22;12631;50.860;5.714;2022-12-07T03:13:48;5.40;99.90
24462;DHT22;12631;50.860;5.714;2022-12-07T03:16:21;5.30;99.90
24462;DHT22;12631;50.860;5.714;2022-12-07T03:18:53;5.30;99.90
24462;DHT22;12631;50.860;5.714;2022-12-07T03:21:25;5.30;99.90
24462;DHT22;12631;50.860;5.714;2022-12-07T03:23:56;5.30;99.90
24462;DHT22;12631;50.860;5.714;2022-12-07T03:26:30;5.30;99.90
24462;DHT22;12631;50.860;5.714;2022-12-07T03:29:02;5.30;99.90
24462;DHT22;12631;50.860;5.714;2022-12-07T03:31:35;5.30;99.90
24462;DHT22;12631;50.860;5.714;2022-12-07T03:34:07;5.30;99.90
24462;DHT22;12631;50.860;5.714;2022-12-07T03:36:42;5.40;99.90
24462;DHT22;12631;50.860;5.714;2022-12-07T03:39:19;5.40;99.90
24462;DHT22;12631;50.860;5.714;2022-12-07T03:41:49;5.40;99.90
24462;DHT22;12631;50.860;5.714;2022-12-07T03:44:17;5.40;99.90
24462;DHT22;12631;50.860;5.714;2022-12-07T03:46:52;5.40;99.90
24462;DHT22;12631;50.860;5.714;2022-12-07T03:49:26;5.40;99.90
24462;DHT22;12631;50.860;5.714;2022-12-07T03:51:59;5.40;99.90
24462;DHT22;12631;50.860;5.714;2022-12-07T03:54:30;5.40;99.90
24462;DHT22;12631;50.860;5.714;2022-12-07T03:57:01;5.40;99.90
24462;DHT22;12631;50.860;5.714;2022-12-07T03:59:29;5.40;99.90
24462;DHT22;12631;50.860;5.714;2022-12-07T04:02:04;5.40;99.90
24462;DHT22;12631;50.860;5.714;2022-12-07T04:04:31;5.40;99.90
24462;DHT22;12631;50.860;5.714;2022-12-07T04:06:59;5.40;99.90
24462;DHT22;12631;50.860;5.714;2022-12-07T04:09:27;5.40;99.90
24462;DHT22;12631;50.860;5.714;2022-12-07T04:11:54;5.40;99.90
24462;DHT22;12631;50.860;5.714;2022-12-07T04:14:22;5.40;99.90
24462;DHT22;12631;50.860;5.714;2022-12-07T04:16:51;5.40;99.90
24462;DHT22;12631;50.860;5.714;2022-12-07T04:19:21;5.40;99.90
24462;DHT22;12631;50.860;5.714;2022-12-07T04:21:48;5.40;99.90
24462;DHT22;12631;50.860;5.714;2022-12-07T04:24:16;5.40;99.90
24462;DHT22;12631;50.860;5.714;2022-12-07T04:26:44;5.40;99.90
24462;DHT22;12631;50.860;5.714;2022-12-07T04:29:12;5.40;99.90
24462;DHT22;12631;50.860;5.714;2022-12-07T04:31:40;5.40;99.90
24462;DHT22;12631;50.860;5.714;2022-12-07T04:34:07;5.30;99.90
24462;DHT22;12631;50.860;5.714;2022-12-07T04:36:36;5.30;99.90
24462;DHT22;12631;50.860;5.714;2022-12-07T04:39:04;5.30;99.90
24462;DHT22;12631;50.860;5.714;2022-12-07T04:41:32;5.30;99.90
24462;DHT22;12631;50.860;5.714;2022-12-07T04:44:01;5.30;99.90
24462;DHT22;12631;50.860;5.714;2022-12-07T04:46:30;5.30;99.90
24462;DHT22;12631;50.860;5.714;2022-12-07T04:48:58;5.30;99.90
24462;DHT22;12631;50.860;5.714;2022-12-07T04:51:28;5.30;99.90
24462;DHT22;12631;50.860;5.714;2022-12-07T04:53:57;5.40;99.90
24462;DHT22;12631;50.860;5.714;2022-12-07T04:56:24;5.30;99.90
24462;DHT22;12631;50.860;5.714;2022-12-07T04:58:53;5.40;99.90
24462;DHT22;12631;50.860;5.714;2022-12-07T05:01:21;5.30;99.90
24462;DHT22;12631;50.860;5.714;2022-12-07T05:03:49;5.30;99.90
24462;DHT22;12631;50.860;5.714;2022-12-07T05:06:16;5.30;99.90
24462;DHT22;12631;50.860;5.714;2022-12-07T05:08:43;5.30;99.90
24462;DHT22;12631;50.860;5.714;2022-12-07T05:11:12;5.20;99.90
24462;DHT22;12631;50.860;5.714;2022-12-07T05:14:01;5.20;99.90
24462;DHT22;12631;50.860;5.714;2022-12-07T05:16:28;5.20;99.90
24462;DHT22;12631;50.860;5.714;2022-12-07T05:18:56;5.20;99.90
24462;DHT22;12631;50.860;5.714;2022-12-07T05:21:23;5.20;99.90
24462;DHT22;12631;50.860;5.714;2022-12-07T05:23:50;5.20;99.90
24462;DHT22;12631;50.860;5.714;2022-12-07T05:26:19;5.20;99.90
24462;DHT22;12631;50.860;5.714;2022-12-07T05:28:50;5.10;99.90
24462;DHT22;12631;50.860;5.714;2022-12-07T05:31:17;5.20;99.90
24462;DHT22;12631;50.860;5.714;2022-12-07T05:33:45;5.20;99.90
24462;DHT22;12631;50.860;5.714;2022-12-07T05:36:12;5.20;99.90
24462;DHT22;12631;50.860;5.714;2022-12-07T05:38:40;5.20;99.90
24462;DHT22;12631;50.860;5.714;2022-12-07T05:41:08;5.20;99.90
24462;DHT22;12631;50.860;5.714;2022-12-07T05:43:58;5.20;99.90
24462;DHT22;12631;50.860;5.714;2022-12-07T05:46:25;5.20;99.90
24462;DHT22;12631;50.860;5.714;2022-12-07T05:48:53;5.20;99.90
24462;DHT22;12631;50.860;5.714;2022-12-07T05:51:20;5.20;99.90
24462;DHT22;12631;50.860;5.714;2022-12-07T05:53:47;5.20;99.90
24462;DHT22;12631;50.860;5.714;2022-12-07T05:56:14;5.20;99.90
24462;DHT22;12631;50.860;5.714;2022-12-07T05:58:41;5.10;99.90
24462;DHT22;12631;50.860;5.714;2022-12-07T06:01:28;5.20;99.90
24462;DHT22;12631;50.860;5.714;2022-12-07T06:03:55;5.20;99.90
24462;DHT22;12631;50.860;5.714;2022-12-07T06:06:22;5.20;99.90
24462;DHT22;12631;50.860;5.714;2022-12-07T06:08:49;5.20;99.90
24462;DHT22;12631;50.860;5.714;2022-12-07T06:11:16;5.20;99.90
24462;DHT22;12631;50.860;5.714;2022-12-07T06:14:01;5.20;99.90
24462;DHT22;12631;50.860;5.714;2022-12-07T06:16:30;5.10;99.90
24462;DHT22;12631;50.860;5.714;2022-12-07T06:18:57;5.20;99.90
24462;DHT22;12631;50.860;5.714;2022-12-07T06:21:24;5.10;99.90
24462;DHT22;12631;50.860;5.714;2022-12-07T06:23:52;5.10;99.90
24462;DHT22;12631;50.860;5.714;2022-12-07T06:26:20;5.10;99.90
24462;DHT22;12631;50.860;5.714;2022-12-07T06:28:47;5.00;99.90
24462;DHT22;12631;50.860;5.714;2022-12-07T06:31:14;5.00;99.90
24462;DHT22;12631;50.860;5.714;2022-12-07T06:33:43;5.00;99.90
24462;DHT22;12631;50.860;5.714;2022-12-07T06:36:11;5.00;99.90
24462;DHT22;12631;50.860;5.714;2022-12-07T06:38:38;4.90;99.90
24462;DHT22;12631;50.860;5.714;2022-12-07T06:41:05;5.00;99.90
24462;DHT22;12631;50.860;5.714;2022-12-07T06:43:33;4.90;99.90
24462;DHT22;12631;50.860;5.714;2022-12-07T06:46:00;4.90;99.90
24462;DHT22;12631;50.860;5.714;2022-12-07T06:48:27;5.00;99.90
24462;DHT22;12631;50.860;5.714;2022-12-07T06:50:56;5.00;99.90
24462;DHT22;12631;50.860;5.714;2022-12-07T06:53:24;4.90;99.90
24462;DHT22;12631;50.860;5.714;2022-12-07T06:55:51;4.90;99.90
24462;DHT22;12631;50.860;5.714;2022-12-07T06:58:18;4.90;99.90
24462;DHT22;12631;50.860;5.714;2022-12-07T07:00:47;4.90;99.90
24462;DHT22;12631;50.860;5.714;2022-12-07T07:03:14;4.90;99.90
24462;DHT22;12631;50.860;5.714;2022-12-07T07:05:42;4.90;99.90
24462;DHT22;12631;50.860;5.714;2022-12-07T07:08:11;4.90;99.90
24462;DHT22;12631;50.860;5.714;2022-12-07T07:10:39;4.90;99.90
24462;DHT22;12631;50.860;5.714;2022-12-07T07:13:06;4.90;99.90
24462;DHT22;12631;50.860;5.714;2022-12-07T07:15:34;4.90;99.90
24462;DHT22;12631;50.860;5.714;2022-12-07T07:18:04;4.90;99.90
24462;DHT22;12631;50.860;5.714;2022-12-07T07:20:31;4.90;99.90
24462;DHT22;12631;50.860;5.714;2022-12-07T07:22:58;4.90;99.90
24462;DHT22;12631;50.860;5.714;2022-12-07T07:25:27;5.00;99.90
24462;DHT22;12631;50.860;5.714;2022-12-07T07:27:54;5.00;99.90
24462;DHT22;12631;50.860;5.714;2022-12-07T07:30:22;5.00;99.90
24462;DHT22;12631;50.860;5.714;2022-12-07T07:32:49;5.00;99.90
24462;DHT22;12631;50.860;5.714;2022-12-07T07:35:16;5.00;99.90
24462;DHT22;12631;50.860;5.714;2022-12-07T07:37:44;5.00;99.90
24462;DHT22;12631;50.860;5.714;2022-12-07T07:40:11;5.00;99.90
24462;DHT22;12631;50.860;5.714;2022-12-07T07:42:40;5.00;99.90
24462;DHT22;12631;50.860;5.714;2022-12-07T07:45:08;5.00;99.90
24462;DHT22;12631;50.860;5.714;2022-12-07T07:47:35;5.00;99.90
24462;DHT22;12631;50.860;5.714;2022-12-07T07:50:03;5.10;99.90
24462;DHT22;12631;50.860;5.714;2022-12-07T07:52:31;5.00;99.90
24462;DHT22;12631;50.860;5.714;2022-12-07T07:54:58;5.00;99.90
24462;DHT22;12631;50.860;5.714;2022-12-07T07:57:26;5.10;99.90
24462;DHT22;12631;50.860;5.714;2022-12-07T07:59:54;5.10;99.90
24462;DHT22;12631;50.860;5.714;2022-12-07T08:02:22;5.10;99.90
24462;DHT22;12631;50.860;5.714;2022-12-07T08:04:50;5.10;99.90
24462;DHT22;12631;50.860;5.714;2022-12-07T08:07:17;5.10;99.90
24462;DHT22;12631;50.860;5.714;2022-12-07T08:09:44;5.10;99.90
24462;DHT22;12631;50.860;5.714;2022-12-07T08:12:11;5.10;99.90
24462;DHT22;12631;50.860;5.714;2022-12-07T08:14:39;5.10;99.90
24462;DHT22;12631;50.860;5.714;2022-12-07T08:17:08;5.10;99.90
24462;DHT22;12631;50.860;5.714;2022-12-07T08:19:35;5.00;99.90
24462;DHT22;12631;50.860;5.714;2022-12-07T08:22:03;5.10;99.90
24462;DHT22;12631;50.860;5.714;2022-12-07T08:24:32;5.00;99.90
24462;DHT22;12631;50.860;5.714;2022-12-07T08:26:59;5.10;99.90
24462;DHT22;12631;50.860;5.714;2022-12-07T08:29:27;5.10;99.90
24462;DHT22;12631;50.860;5.714;2022-12-07T08:31:54;5.10;99.90
24462;DHT22;12631;50.860;5.714;2022-12-07T08:34:23;5.20;99.90
24462;DHT22;12631;50.860;5.714;2022-12-07T08:36:50;5.20;99.90
24462;DHT22;12631;50.860;5.714;2022-12-07T08:39:17;5.20;99.90
24462;DHT22;12631;50.860;5.714;2022-12-07T08:41:45;5.20;99.90
24462;DHT22;12631;50.860;5.714;2022-12-07T08:44:12;5.30;99.90
24462;DHT22;12631;50.860;5.714;2022-12-07T08:46:41;5.20;99.90
24462;DHT22;12631;50.860;5.714;2022-12-07T08:49:13;5.20;99.90
24462;DHT22;12631;50.860;5.714;2022-12-07T08:51:43;5.20;99.90
24462;DHT22;12631;50.860;5.714;2022-12-07T08:54:12;5.20;99.90
24462;DHT22;12631;50.860;5.714;2022-12-07T08:56:40;5.20;99.90
24462;DHT22;12631;50.860;5.714;2022-12-07T08:59:08;5.20;99.90
24462;DHT22;12631;50.860;5.714;2022-12-07T09:01:36;5.20;99.90
24462;DHT22;12631;50.860;5.714;2022-12-07T09:04:03;5.20;99.90
24462;DHT22;12631;50.860;5.714;2022-12-07T09:06:30;5.30;99.90
24462;DHT22;12631;50.860;5.714;2022-12-07T09:09:01;5.30;99.90
24462;DHT22;12631;50.860;5.714;2022-12-07T09:11:28;5.20;99.90
24462;DHT22;12631;50.860;5.714;2022-12-07T09:13:56;5.10;99.90
24462;DHT22;12631;50.860;5.714;2022-12-07T09:16:23;5.20;99.90
24462;DHT22;12631;50.860;5.714;2022-12-07T09:18:50;5.20;99.90
24462;DHT22;12631;50.860;5.714;2022-12-07T09:21:18;5.20;99.90
24462;DHT22;12631;50.860;5.714;2022-12-07T09:23:45;5.30;99.90
24462;DHT22;12631;50.860;5.714;2022-12-07T09:26:14;5.30;99.90
24462;DHT22;12631;50.860;5.714;2022-12-07T09:28:41;5.30;99.90
24462;DHT22;12631;50.860;5.714;2022-12-07T09:31:08;5.20;99.90
24462;DHT22;12631;50.860;5.714;2022-12-07T09:33:36;5.40;99.90
24462;DHT22;12631;50.860;5.714;2022-12-07T09:36:04;5.40;99.90
24462;DHT22;12631;50.860;5.714;2022-12-07T09:38:32;5.60;99.90
24462;DHT22;12631;50.860;5.714;2022-12-07T09:41:04;5.50;99.90
24462;DHT22;12631;50.860;5.714;2022-12-07T09:43:35;5.50;99.90
24462;DHT22;12631;50.860;5.714;2022-12-07T09:46:03;5.40;99.90
24462;DHT22;12631;50.860;5.714;2022-12-07T09:48:33;5.40;99.90
24462;DHT22;12631;50.860;5.714;2022-12-07T09:51:03;5.50;99.90
24462;DHT22;12631;50.860;5.714;2022-12-07T09:53:38;5.60;99.90
24462;DHT22;12631;50.860;5.714;2022-12-07T09:56:06;5.80;99.90
24462;DHT22;12631;50.860;5.714;2022-12-07T09:58:34;6.00;99.90
24462;DHT22;12631;50.860;5.714;2022-12-07T10:01:11;6.20;99.90
24462;DHT22;12631;50.860;5.714;2022-12-07T10:03:40;6.10;99.90
24462;DHT22;12631;50.860;5.714;2022-12-07T10:06:11;5.90;99.90
24462;DHT22;12631;50.860;5.714;2022-12-07T10:08:39;5.80;99.90
24462;DHT22;12631;50.860;5.714;2022-12-07T10:11:10;5.70;99.90
24462;DHT22;12631;50.860;5.714;2022-12-07T10:13:40;5.60;99.90
24462;DHT22;12631;50.860;5.714;2022-12-07T10:16:37;5.50;99.90
24462;DHT22;12631;50.860;5.714;2022-12-07T10:19:19;5.80;99.90
24462;DHT22;12631;50.860;5.714;2022-12-07T10:22:10;6.30;99.90
24462;DHT22;12631;50.860;5.714;2022-12-07T10:24:38;6.40;99.90
24462;DHT22;12631;50.860;5.714;2022-12-07T10:27:18;6.10;99.90
24462;DHT22;12631;50.860;5.714;2022-12-07T10:29:52;6.10;99.90
24462;DHT22;12631;50.860;5.714;2022-12-07T10:32:31;6.00;99.90
24462;DHT22;12631;50.860;5.714;2022-12-07T10:35:21;5.80;99.90
24462;DHT22;12631;50.860;5.714;2022-12-07T10:37:49;5.80;99.90
24462;DHT22;12631;50.860;5.714;2022-12-07T10:40:30;5.90;99.90
24462;DHT22;12631;50.860;5.714;2022-12-07T10:43:15;6.00;99.90
24462;DHT22;12631;50.860;5.714;2022-12-07T10:46:03;6.00;99.90
24462;DHT22;12631;50.860;5.714;2022-12-07T10:48:41;6.20;99.90
24462;DHT22;12631;50.860;5.714;2022-12-07T10:51:14;6.20;99.90
24462;DHT22;12631;50.860;5.714;2022-12-07T10:53:59;6.30;99.90
24462;DHT22;12631;50.860;5.714;2022-12-07T10:56:53;6.40;99.90
24462;DHT22;12631;50.860;5.714;2022-12-07T10:59:34;6.50;99.90
24462;DHT22;12631;50.860;5.714;2022-12-07T11:02:21;6.40;99.90
24462;DHT22;12631;50.860;5.714;2022-12-07T11:05:02;6.40;99.90
24462;DHT22;12631;50.860;5.714;2022-12-07T11:07:39;6.40;99.90
24462;DHT22;12631;50.860;5.714;2022-12-07T11:10:14;6.50;99.90
24462;DHT22;12631;50.860;5.714;2022-12-07T11:12:54;6.70;99.90
24462;DHT22;12631;50.860;5.714;2022-12-07T11:15:30;6.60;99.90
24462;DHT22;12631;50.860;5.714;2022-12-07T11:18:06;6.50;99.90
24462;DHT22;12631;50.860;5.714;2022-12-07T11:20:42;6.30;99.90
24462;DHT22;12631;50.860;5.714;2022-12-07T11:23:20;6.30;99.90
24462;DHT22;12631;50.860;5.714;2022-12-07T11:25:54;6.40;99.90
24462;DHT22;12631;50.860;5.714;2022-12-07T11:28:35;6.80;99.90
24462;DHT22;12631;50.860;5.714;2022-12-07T11:31:13;7.00;99.90
24462;DHT22;12631;50.860;5.714;2022-12-07T11:33:47;6.70;99.90
24462;DHT22;12631;50.860;5.714;2022-12-07T11:36:31;6.50;99.90
24462;DHT22;12631;50.860;5.714;2022-12-07T11:39:01;6.40;99.90
24462;DHT22;12631;50.860;5.714;2022-12-07T11:41:34;6.40;99.90
24462;DHT22;12631;50.860;5.714;2022-12-07T11:44:06;6.30;99.90
24462;DHT22;12631;50.860;5.714;2022-12-07T11:46:43;6.70;99.90
24462;DHT22;12631;50.860;5.714;2022-12-07T11:49:20;6.90;99.90
24462;DHT22;12631;50.860;5.714;2022-12-07T11:51:57;6.90;99.90
24462;DHT22;12631;50.860;5.714;2022-12-07T11:54:28;6.80;99.90
24462;DHT22;12631;50.860;5.714;2022-12-07T11:57:01;6.80;99.90
24462;DHT22;12631;50.860;5.714;2022-12-07T11:59:36;6.80;99.90
24462;DHT22;12631;50.860;5.714;2022-12-07T12:02:13;6.80;99.90
24462;DHT22;12631;50.860;5.714;2022-12-07T12:04:50;6.70;99.90
24462;DHT22;12631;50.860;5.714;2022-12-07T12:07:23;6.60;99.90
24462;DHT22;12631;50.860;5.714;2022-12-07T12:09:53;6.70;99.90
24462;DHT22;12631;50.860;5.714;2022-12-07T12:15:35;6.80;99.90
24462;DHT22;12631;50.860;5.714;2022-12-07T12:21:09;7.00;99.90
24462;DHT22;12631;50.860;5.714;2022-12-07T12:23:39;7.10;99.90
24462;DHT22;12631;50.860;5.714;2022-12-07T12:26:15;6.90;99.90
24462;DHT22;12631;50.860;5.714;2022-12-07T12:28:50;6.80;99.90
24462;DHT22;12631;50.860;5.714;2022-12-07T12:31:32;6.80;99.90
24462;DHT22;12631;50.860;5.714;2022-12-07T12:34:04;6.90;99.90
24462;DHT22;12631;50.860;5.714;2022-12-07T12:36:46;7.00;99.90
24462;DHT22;12631;50.860;5.714;2022-12-07T12:39:16;7.10;99.90
24462;DHT22;12631;50.860;5.714;2022-12-07T12:42:00;7.10;99.90
24462;DHT22;12631;50.860;5.714;2022-12-07T12:47:58;7.20;99.90
24462;DHT22;12631;50.860;5.714;2022-12-07T12:50:29;7.10;99.90
24462;DHT22;12631;50.860;5.714;2022-12-07T12:53:14;7.10;99.90
24462;DHT22;12631;50.860;5.714;2022-12-07T12:58:44;7.20;99.90
24462;DHT22;12631;50.860;5.714;2022-12-07T13:01:44;7.00;99.90
24462;DHT22;12631;50.860;5.714;2022-12-07T13:04:34;7.00;99.90
24462;DHT22;12631;50.860;5.714;2022-12-07T13:07:08;7.00;99.90
24462;DHT22;12631;50.860;5.714;2022-12-07T13:09:43;7.00;99.90
24462;DHT22;12631;50.860;5.714;2022-12-07T13:12:14;7.00;99.90
24462;DHT22;12631;50.860;5.714;2022-12-07T13:14:54;7.10;99.90
24462;DHT22;12631;50.860;5.714;2022-12-07T13:18:00;7.10;99.90
24462;DHT22;12631;50.860;5.714;2022-12-07T13:20:48;7.00;99.90
24462;DHT22;12631;50.860;5.714;2022-12-07T13:23:24;7.00;99.90
24462;DHT22;12631;50.860;5.714;2022-12-07T13:28:45;7.00;99.90
24462;DHT22;12631;50.860;5.714;2022-12-07T13:31:32;7.00;99.90
24462;DHT22;12631;50.860;5.714;2022-12-07T13:34:00;7.00;99.90
24462;DHT22;12631;50.860;5.714;2022-12-07T13:36:29;7.00;99.90
24462;DHT22;12631;50.860;5.714;2022-12-07T13:39:18;6.90;99.90
24462;DHT22;12631;50.860;5.714;2022-12-07T13:41:51;6.90;99.90
24462;DHT22;12631;50.860;5.714;2022-12-07T13:44:20;6.80;99.90
24462;DHT22;12631;50.860;5.714;2022-12-07T13:46:53;6.80;99.90
24462;DHT22;12631;50.860;5.714;2022-12-07T13:49:24;6.90;99.90
24462;DHT22;12631;50.860;5.714;2022-12-07T13:51:53;6.90;99.90
24462;DHT22;12631;50.860;5.714;2022-12-07T13:54:22;6.90;99.90
24462;DHT22;12631;50.860;5.714;2022-12-07T13:56:52;6.80;99.90
24462;DHT22;12631;50.860;5.714;2022-12-07T13:59:21;6.80;99.90
24462;DHT22;12631;50.860;5.714;2022-12-07T14:01:51;6.80;99.90
24462;DHT22;12631;50.860;5.714;2022-12-07T14:04:30;6.80;99.90
24462;DHT22;12631;50.860;5.714;2022-12-07T14:06:59;6.80;99.90
24462;DHT22;12631;50.860;5.714;2022-12-07T14:09:28;6.80;99.90
24462;DHT22;12631;50.860;5.714;2022-12-07T14:11:58;6.70;99.90
24462;DHT22;12631;50.860;5.714;2022-12-07T14:14:27;6.70;99.90
24462;DHT22;12631;50.860;5.714;2022-12-07T14:16:59;6.80;99.90
24462;DHT22;12631;50.860;5.714;2022-12-07T14:19:48;6.80;99.90
24462;DHT22;12631;50.860;5.714;2022-12-07T14:22:25;6.90;99.90
24462;DHT22;12631;50.860;5.714;2022-12-07T14:25:13;6.90;99.90
24462;DHT22;12631;50.860;5.714;2022-12-07T14:27:53;6.90;99.90
24462;DHT22;12631;50.860;5.714;2022-12-07T14:30:23;6.90;99.90
24462;DHT22;12631;50.860;5.714;2022-12-07T14:32:53;7.00;99.90
24462;DHT22;12631;50.860;5.714;2022-12-07T14:35:21;7.00;99.90
24462;DHT22;12631;50.860;5.714;2022-12-07T14:37:48;6.90;99.90
24462;DHT22;12631;50.860;5.714;2022-12-07T14:40:19;6.70;99.90
24462;DHT22;12631;50.860;5.714;2022-12-07T14:42:50;6.60;99.90
24462;DHT22;12631;50.860;5.714;2022-12-07T14:45:20;6.60;99.90
